Time;durP1;ratioP1;P1;durP2;ratioP2;P2;SDS_P1;SDS_P2;PMS_P1;PMS_P2;Temp;Humidity;BMP_temperature;BMP_pressure;BME280_temperature;BME280_humidity;BME280_pressure;Samples;Min_cycle;Max_cycle;Signal;HPM_P1;HPM_P2
2023/09/03 00:02:11;;;;;;;;;4.25;3.00;;;;;;;;5082775;28;45165;-77
2023/09/03 00:04:36;;;;;;;;;3.00;3.00;;;;;;;;5082610;28;45319;-78
2023/09/03 00:07:01;;;;;;;;;2.75;2.75;;;;;;;;5069695;28;45395;-77
2023/09/03 00:09:26;;;;;;;;;1.75;1.75;;;;;;;;5070575;28;45213;-77
2023/09/03 00:11:51;;;;;;;;;2.25;2.25;;;;;;;;5082599;28;45299;-78
2023/09/03 00:14:17;;;;;;;;;2.50;2.50;;;;;;;;5082334;28;45428;-77
2023/09/03 00:16:42;;;;;;;;;2.00;2.00;;;;;;;;5064065;28;48364;-77
2023/09/03 00:19:07;;;;;;;;;3.00;3.00;;;;;;;;5082378;28;45323;-78
2023/09/03 00:21:32;;;;;;;;;2.50;2.50;;;;;;;;5082196;28;45590;-78
2023/09/03 00:23:57;;;;;;;;;3.00;3.00;;;;;;;;5063832;28;47320;-78
2023/09/03 00:26:26;;;;;;;;;4.00;4.00;;;;;;;;5082102;28;45505;-78
2023/09/03 00:28:51;;;;;;;;;2.50;1.50;;;;;;;;5068546;27;45371;-77
2023/09/03 00:31:17;;;;;;;;;3.25;3.00;;;;;;;;5102742;27;45303;-77
2023/09/03 00:33:42;;;;;;;;;3.00;3.00;;;;;;;;5084131;27;46252;-78
2023/09/03 00:36:09;;;;;;;;;1.50;1.50;;;;;;;;5083777;27;47054;-77
2023/09/03 00:38:34;;;;;;;;;5.25;4.00;;;;;;;;5083722;27;46005;-77
2023/09/03 00:41:00;;;;;;;;;5.50;4.75;;;;;;;;5102589;27;45142;-78
2023/09/03 00:43:26;;;;;;;;;2.25;2.25;;;;;;;;5083731;27;47011;-77
2023/09/03 00:45:52;;;;;;;;;2.25;2.25;;;;;;;;5102208;27;45338;-77
2023/09/03 00:48:18;;;;;;;;;4.00;4.00;;;;;;;;5083772;27;45364;-77
2023/09/03 00:50:45;;;;;;;;;2.25;2.25;;;;;;;;5102318;27;45408;-77
2023/09/03 00:53:10;;;;;;;;;4.00;4.00;;;;;;;;5083537;27;48170;-77
2023/09/03 00:55:36;;;;;;;;;2.00;2.00;;;;;;;;5101874;27;45451;-77
2023/09/03 00:58:02;;;;;;;;;1.75;1.75;;;;;;;;5102326;27;45305;-77
2023/09/03 01:00:27;;;;;;;;;2.00;2.00;;;;;;;;5102234;27;45254;-78
2023/09/03 01:02:53;;;;;;;;;2.00;2.00;;;;;;;;5102016;27;45213;-77
2023/09/03 01:05:18;;;;;;;;;3.50;3.50;;;;;;;;5101894;27;45269;-77
2023/09/03 01:07:43;;;;;;;;;2.00;2.00;;;;;;;;5101549;27;45263;-77
2023/09/03 01:10:09;;;;;;;;;2.25;2.25;;;;;;;;5083610;27;45323;-77
2023/09/03 01:12:54;;;;;;;;;4.00;4.00;;;;;;;;5102051;27;45193;-78
2023/09/03 01:15:25;;;;;;;;;1.75;1.75;;;;;;;;5101114;27;45225;-77
2023/09/03 01:17:50;;;;;;;;;3.50;3.50;;;;;;;;5101885;27;45401;-77
2023/09/03 01:20:16;;;;;;;;;3.00;3.00;;;;;;;;5101900;27;45373;-77
2023/09/03 01:22:44;;;;;;;;;3.50;3.50;;;;;;;;5101692;27;45726;-77
2023/09/03 01:25:12;;;;;;;;;3.25;3.25;;;;;;;;5101520;27;45278;-77
2023/09/03 01:27:46;;;;;;;;;3.00;3.00;;;;;;;;5101749;27;45365;-77
2023/09/03 01:30:12;;;;;;;;;2.25;2.25;;;;;;;;5085486;27;45234;-77
2023/09/03 01:32:37;;;;;;;;;1.25;1.25;;;;;;;;5080946;28;45551;-77
2023/09/03 01:35:03;;;;;;;;;2.50;2.50;;;;;;;;5062489;28;48339;-77
2023/09/03 01:37:31;;;;;;;;;2.25;2.25;;;;;;;;5080803;28;45566;-77
2023/09/03 01:39:56;;;;;;;;;3.00;3.00;;;;;;;;5081180;28;45385;-77
2023/09/03 01:42:22;;;;;;;;;2.00;2.00;;;;;;;;5080798;28;45570;-77
2023/09/03 01:44:47;;;;;;;;;4.00;4.00;;;;;;;;5080993;28;45360;-76
2023/09/03 01:47:18;;;;;;;;;2.75;2.75;;;;;;;;5080884;28;45362;-77
2023/09/03 01:49:50;;;;;;;;;3.00;3.00;;;;;;;;5062712;28;45410;-77
2023/09/03 01:52:21;;;;;;;;;2.50;2.50;;;;;;;;5080564;28;45333;-77
2023/09/03 01:54:48;;;;;;;;;2.50;2.50;;;;;;;;5080588;28;46739;-77
2023/09/03 01:57:13;;;;;;;;;2.75;2.75;;;;;;;;5060656;28;45323;-77
2023/09/03 01:59:43;;;;;;;;;2.40;2.40;;;;;;;;5060660;28;45206;-78
2023/09/03 02:02:08;;;;;;;;;3.00;3.00;;;;;;;;5060321;28;45275;-77
2023/09/03 02:04:33;;;;;;;;;3.00;3.00;;;;;;;;5042000;28;47352;-77
2023/09/03 02:06:59;;;;;;;;;4.00;3.00;;;;;;;;5059982;28;45341;-77
2023/09/03 02:09:24;;;;;;;;;3.00;3.00;;;;;;;;5060536;28;45292;-77
2023/09/03 02:11:49;;;;;;;;;2.00;2.00;;;;;;;;5060292;28;45577;-77
2023/09/03 02:14:14;;;;;;;;;3.00;3.00;;;;;;;;5060202;28;45359;-77
2023/09/03 02:16:39;;;;;;;;;3.25;3.25;;;;;;;;5060151;28;45366;-77
2023/09/03 02:19:05;;;;;;;;;3.50;3.50;;;;;;;;5059433;28;45310;-76
2023/09/03 02:21:30;;;;;;;;;1.75;1.75;;;;;;;;5059889;28;45389;-77
2023/09/03 02:23:55;;;;;;;;;3.00;3.00;;;;;;;;5041731;28;47070;-77
2023/09/03 02:26:20;;;;;;;;;2.00;2.00;;;;;;;;5060149;28;45328;-76
2023/09/03 02:28:45;;;;;;;;;3.25;3.00;;;;;;;;5068154;27;45358;-78
2023/09/03 02:31:12;;;;;;;;;3.75;3.25;;;;;;;;5082044;27;47354;-77
2023/09/03 02:33:37;;;;;;;;;3.00;3.00;;;;;;;;5082206;27;48169;-77
2023/09/03 02:36:02;;;;;;;;;5.00;3.00;;;;;;;;5100479;27;45258;-77
2023/09/03 02:38:28;;;;;;;;;2.00;2.00;;;;;;;;5100428;27;45209;-77
2023/09/03 02:40:53;;;;;;;;;3.00;3.00;;;;;;;;5100509;27;45340;-76
2023/09/03 02:43:18;;;;;;;;;2.50;2.50;;;;;;;;5100265;27;45345;-77
2023/09/03 02:45:43;;;;;;;;;2.00;2.00;;;;;;;;5100673;27;45198;-77
2023/09/03 02:48:08;;;;;;;;;2.00;2.00;;;;;;;;5100623;27;45203;-77
2023/09/03 02:50:34;;;;;;;;;3.25;2.25;;;;;;;;5100317;27;45145;-77
2023/09/03 02:52:59;;;;;;;;;5.00;4.67;;;;;;;;5100103;27;46304;-77
2023/09/03 02:55:25;;;;;;;;;2.33;2.33;;;;;;;;5100163;27;45196;-78
2023/09/03 02:57:50;;;;;;;;;4.00;4.00;;;;;;;;5100561;27;45212;-77
2023/09/03 03:00:18;;;;;;;;;2.75;2.75;;;;;;;;5100247;27;45461;-76
2023/09/03 03:02:43;;;;;;;;;3.00;3.00;;;;;;;;5100337;27;45339;-77
2023/09/03 03:05:09;;;;;;;;;2.00;2.00;;;;;;;;5081886;27;45439;-77
2023/09/03 03:07:36;;;;;;;;;3.50;3.50;;;;;;;;5100092;27;45582;-77
2023/09/03 03:10:01;;;;;;;;;2.00;2.00;;;;;;;;5100214;27;45390;-77
2023/09/03 03:12:26;;;;;;;;;3.00;3.00;;;;;;;;5100090;27;45438;-76
2023/09/03 03:14:51;;;;;;;;;4.00;4.00;;;;;;;;5100192;27;45324;-77
2023/09/03 03:17:17;;;;;;;;;3.33;3.33;;;;;;;;5100145;27;45208;-77
2023/09/03 03:19:42;;;;;;;;;2.25;2.25;;;;;;;;5100071;27;45477;-77
2023/09/03 03:22:07;;;;;;;;;2.33;2.33;;;;;;;;5099737;27;46373;-78
2023/09/03 03:24:32;;;;;;;;;4.00;3.00;;;;;;;;5081686;27;45170;-76
2023/09/03 03:26:57;;;;;;;;;3.00;3.00;;;;;;;;5100187;27;45235;-77
2023/09/03 03:29:23;;;;;;;;;4.00;4.00;;;;;;;;5090950;27;45271;-77
2023/09/03 03:31:49;;;;;;;;;2.75;2.00;;;;;;;;5083016;28;45940;-77
2023/09/03 03:34:14;;;;;;;;;2.50;2.50;;;;;;;;5082894;28;45279;-76
2023/09/03 03:36:39;;;;;;;;;2.00;2.00;;;;;;;;5064424;28;45385;-77
2023/09/03 03:39:04;;;;;;;;;1.50;1.50;;;;;;;;5082832;28;45272;-77
2023/09/03 03:41:30;;;;;;;;;3.67;3.67;;;;;;;;5082858;28;45202;-77
2023/09/03 03:43:55;;;;;;;;;3.00;3.00;;;;;;;;5082470;28;45269;-76
2023/09/03 03:46:20;;;;;;;;;2.50;2.50;;;;;;;;5082885;28;45588;-77
2023/09/03 03:48:46;;;;;;;;;3.75;3.75;;;;;;;;5082844;28;45143;-78
2023/09/03 03:51:11;;;;;;;;;3.50;3.50;;;;;;;;5082564;28;45581;-77
2023/09/03 03:53:37;;;;;;;;;3.00;3.00;;;;;;;;5082222;28;45339;-76
2023/09/03 03:56:03;;;;;;;;;3.00;3.00;;;;;;;;5082305;28;46002;-77
2023/09/03 03:58:29;;;;;;;;;3.00;3.00;;;;;;;;5063954;28;47139;-77
2023/09/03 04:00:54;;;;;;;;;3.75;3.75;;;;;;;;5063695;28;47140;-77
2023/09/03 04:03:21;;;;;;;;;2.25;2.25;;;;;;;;5082664;28;45354;-77
2023/09/03 04:05:54;;;;;;;;;2.75;2.75;;;;;;;;5064419;28;45253;-78
2023/09/03 04:08:20;;;;;;;;;1.75;1.75;;;;;;;;5082334;28;45374;-77
2023/09/03 04:10:45;;;;;;;;;4.00;4.00;;;;;;;;5063987;28;48209;-77
2023/09/03 04:13:10;;;;;;;;;3.00;3.00;;;;;;;;5082351;28;45347;-76
2023/09/03 04:15:37;;;;;;;;;2.25;2.25;;;;;;;;5082563;28;45315;-77
2023/09/03 04:18:02;;;;;;;;;3.00;3.00;;;;;;;;5064011;28;47066;-77
2023/09/03 04:20:27;;;;;;;;;3.75;3.75;;;;;;;;5082107;28;46225;-77
2023/09/03 04:22:53;;;;;;;;;2.25;2.25;;;;;;;;5050974;28;45400;-77
2023/09/03 04:25:19;;;;;;;;;2.50;2.50;;;;;;;;5062088;28;45220;-77
2023/09/03 04:27:44;;;;;;;;;2.00;2.00;;;;;;;;5062037;28;45190;-77
2023/09/03 04:30:10;;;;;;;;;2.75;2.75;;;;;;;;5092901;27;46197;-76
2023/09/03 04:32:35;;;;;;;;;3.00;1.75;;;;;;;;5102205;27;45282;-77
2023/09/03 04:35:01;;;;;;;;;1.75;1.75;;;;;;;;5102358;27;45185;-77
2023/09/03 04:37:26;;;;;;;;;4.25;3.25;;;;;;;;5083625;27;46995;-77
2023/09/03 04:39:51;;;;;;;;;2.00;2.00;;;;;;;;5102422;27;46208;-77
2023/09/03 04:42:16;;;;;;;;;2.75;2.75;;;;;;;;5101521;27;45161;-77
2023/09/03 04:44:42;;;;;;;;;2.00;2.00;;;;;;;;5102578;27;45567;-76
2023/09/03 04:47:07;;;;;;;;;3.75;3.75;;;;;;;;5083790;27;46867;-77
2023/09/03 04:49:33;;;;;;;;;1.75;1.75;;;;;;;;5102181;27;45302;-77
2023/09/03 04:51:58;;;;;;;;;3.00;2.00;;;;;;;;5102006;27;45400;-77
2023/09/03 04:54:23;;;;;;;;;2.00;2.00;;;;;;;;5084099;27;45307;-77
2023/09/03 04:56:48;;;;;;;;;3.00;3.00;;;;;;;;5083216;27;47209;-77
2023/09/03 04:59:14;;;;;;;;;2.00;2.00;;;;;;;;5102193;27;45480;-77
2023/09/03 05:01:39;;;;;;;;;2.00;2.00;;;;;;;;5102228;27;45366;-77
2023/09/03 05:04:05;;;;;;;;;3.50;3.00;;;;;;;;5102268;27;45521;-76
2023/09/03 05:06:30;;;;;;;;;3.25;3.25;;;;;;;;5101660;27;45324;-76
2023/09/03 05:08:55;;;;;;;;;1.25;1.25;;;;;;;;5083449;27;48503;-76
2023/09/03 05:11:20;;;;;;;;;2.00;2.00;;;;;;;;5102014;27;45388;-77
2023/09/03 05:13:45;;;;;;;;;3.25;3.25;;;;;;;;5102271;27;45349;-77
2023/09/03 05:16:11;;;;;;;;;3.00;3.00;;;;;;;;5101715;27;45451;-76
2023/09/03 05:18:36;;;;;;;;;2.00;2.00;;;;;;;;5101895;27;46078;-76
2023/09/03 05:21:08;;;;;;;;;5.33;4.67;;;;;;;;5083319;27;46141;-77
2023/09/03 05:23:34;;;;;;;;;2.75;2.75;;;;;;;;5102051;27;45394;-76
2023/09/03 05:25:59;;;;;;;;;4.00;3.00;;;;;;;;5101667;27;45463;-77
2023/09/03 05:28:25;;;;;;;;;2.67;2.67;;;;;;;;5082013;27;47125;-77
2023/09/03 05:30:50;;;;;;;;;3.00;3.00;;;;;;;;5062993;28;45334;-77
2023/09/03 05:33:15;;;;;;;;;3.00;3.00;;;;;;;;5081040;28;45233;-77
2023/09/03 05:35:41;;;;;;;;;5.00;4.00;;;;;;;;5062618;28;47504;-75
2023/09/03 05:38:06;;;;;;;;;2.33;2.33;;;;;;;;5080955;28;46327;-76
2023/09/03 05:40:32;;;;;;;;;3.00;3.00;;;;;;;;5080923;28;45327;-76
2023/09/03 05:42:57;;;;;;;;;3.00;3.00;;;;;;;;5062603;28;45423;-76
2023/09/03 05:45:22;;;;;;;;;4.00;3.00;;;;;;;;5080935;28;45228;-76
2023/09/03 05:47:48;;;;;;;;;3.00;2.00;;;;;;;;5080972;28;46261;-76
2023/09/03 05:50:13;;;;;;;;;2.00;2.00;;;;;;;;5080936;28;45157;-76
2023/09/03 05:52:38;;;;;;;;;2.00;2.00;;;;;;;;5080805;28;45215;-76
2023/09/03 05:55:04;;;;;;;;;2.50;2.50;;;;;;;;5080834;28;45216;-76
2023/09/03 05:57:29;;;;;;;;;2.67;2.67;;;;;;;;5062378;28;47497;-77
2023/09/03 05:59:55;;;;;;;;;2.67;2.33;;;;;;;;5061896;28;45347;-77
2023/09/03 06:02:21;;;;;;;;;3.00;3.00;;;;;;;;5080869;28;45285;-77
2023/09/03 06:04:46;;;;;;;;;4.00;4.00;;;;;;;;5080566;28;45432;-76
2023/09/03 06:07:11;;;;;;;;;3.67;3.00;;;;;;;;5080417;28;46116;-75
2023/09/03 06:09:37;;;;;;;;;5.33;5.00;;;;;;;;5080618;28;45309;-75
2023/09/03 06:12:03;;;;;;;;;4.33;4.33;;;;;;;;5080843;28;45314;-74
2023/09/03 06:14:28;;;;;;;;;5.00;5.00;;;;;;;;5080477;28;45323;-74
2023/09/03 06:16:54;;;;;;;;;3.67;3.33;;;;;;;;5071436;28;45503;-74
2023/09/03 06:19:20;;;;;;;;;3.33;3.33;;;;;;;;5069899;28;45282;-76
2023/09/03 06:21:45;;;;;;;;;4.00;4.00;;;;;;;;5074507;28;45337;-75
2023/09/03 06:24:11;;;;;;;;;4.33;4.00;;;;;;;;5042345;28;45874;-78
2023/09/03 06:26:36;;;;;;;;;4.00;4.00;;;;;;;;5059716;28;46245;-79
2023/09/03 06:29:01;;;;;;;;;4.33;4.33;;;;;;;;5072292;27;45348;-78
2023/09/03 06:31:26;;;;;;;;;7.00;4.00;;;;;;;;5082495;27;45339;-76
2023/09/03 06:33:53;;;;;;;;;5.00;5.00;;;;;;;;5068707;28;46369;-76
2023/09/03 06:36:18;;;;;;;;;3.00;3.00;;;;;;;;5079513;28;46079;-77
2023/09/03 06:38:43;;;;;;;;;5.00;5.00;;;;;;;;5080188;28;45186;-77
2023/09/03 06:41:09;;;;;;;;;4.33;4.33;;;;;;;;5061838;28;45817;-77
2023/09/03 06:43:35;;;;;;;;;4.00;4.00;;;;;;;;5079873;28;45241;-78
2023/09/03 06:46:00;;;;;;;;;3.00;3.00;;;;;;;;5079657;28;45399;-77
2023/09/03 06:48:25;;;;;;;;;4.33;4.33;;;;;;;;5080115;28;45233;-77
2023/09/03 06:50:50;;;;;;;;;3.67;3.67;;;;;;;;5061810;28;45272;-79
2023/09/03 06:53:15;;;;;;;;;3.67;3.67;;;;;;;;5079809;28;45394;-77
2023/09/03 06:55:42;;;;;;;;;3.00;3.00;;;;;;;;5060583;28;45296;-79
2023/09/03 06:58:07;;;;;;;;;3.00;3.00;;;;;;;;5059989;28;45347;-79
2023/09/03 07:00:34;;;;;;;;;4.00;4.00;;;;;;;;5059841;28;45549;-79
2023/09/03 07:03:02;;;;;;;;;5.33;4.00;;;;;;;;5041365;28;46901;-76
2023/09/03 07:05:27;;;;;;;;;3.00;3.00;;;;;;;;5064064;28;45757;-78
2023/09/03 07:07:53;;;;;;;;;4.00;4.00;;;;;;;;5047647;28;45710;-77
2023/09/03 07:10:18;;;;;;;;;6.00;5.00;;;;;;;;5048251;28;45300;-77
2023/09/03 07:12:43;;;;;;;;;5.00;5.00;;;;;;;;5047974;28;46125;-78
2023/09/03 07:15:08;;;;;;;;;3.33;3.33;;;;;;;;5066381;28;46245;-81
2023/09/03 07:17:33;;;;;;;;;4.67;4.67;;;;;;;;5056782;28;45485;-79
2023/09/03 07:19:59;;;;;;;;;4.67;4.67;;;;;;;;5057771;28;45793;-78
2023/09/03 07:22:24;;;;;;;;;5.00;5.00;;;;;;;;5077283;28;45483;-77
2023/09/03 07:24:52;;;;;;;;;5.00;5.00;;;;;;;;5078763;28;46059;-77
2023/09/03 07:27:17;;;;;;;;;4.67;3.67;;;;;;;;5076492;28;45454;-77
2023/09/03 07:29:43;;;;;;;;;2.33;2.33;;;;;;;;5077106;27;45371;-77
2023/09/03 07:32:08;;;;;;;;;4.33;4.33;;;;;;;;5058667;28;46433;-79
2023/09/03 07:34:33;;;;;;;;;3.00;3.00;;;;;;;;5076158;28;46485;-78
2023/09/03 07:36:58;;;;;;;;;3.67;3.67;;;;;;;;5074620;27;46270;-78
2023/09/03 07:39:23;;;;;;;;;4.00;4.00;;;;;;;;5059497;28;45848;-78
2023/09/03 07:41:49;;;;;;;;;3.00;3.00;;;;;;;;5072320;27;45432;-78
2023/09/03 07:44:14;;;;;;;;;5.67;4.00;;;;;;;;5073517;27;45453;-78
2023/09/03 07:46:39;;;;;;;;;4.00;4.00;;;;;;;;5081410;27;45436;-79
2023/09/03 07:49:04;;;;;;;;;4.00;4.00;;;;;;;;5074605;27;46658;-76
2023/09/03 07:51:29;;;;;;;;;4.00;3.75;;;;;;;;5074524;27;45465;-79
2023/09/03 07:53:56;;;;;;;;;3.33;3.33;;;;;;;;5075738;27;45719;-81
2023/09/03 07:56:21;;;;;;;;;5.00;4.33;;;;;;;;5056760;28;46258;-77
2023/09/03 07:58:46;;;;;;;;;4.00;4.00;;;;;;;;5077696;28;45477;-77
2023/09/03 08:01:12;;;;;;;;;4.00;4.00;;;;;;;;5059554;28;45784;-78
2023/09/03 08:03:38;;;;;;;;;3.67;3.67;;;;;;;;5056219;28;48025;-77
2023/09/03 08:06:03;;;;;;;;;5.00;5.00;;;;;;;;5077222;28;46288;-79
2023/09/03 08:08:29;;;;;;;;;4.00;4.00;;;;;;;;5078023;28;45448;-77
2023/09/03 08:10:54;;;;;;;;;3.00;3.00;;;;;;;;5075427;28;45961;-77
2023/09/03 08:13:19;;;;;;;;;4.67;4.67;;;;;;;;5058002;28;46276;-77
2023/09/03 08:15:45;;;;;;;;;4.67;3.67;;;;;;;;5075560;28;45444;-77
2023/09/03 08:18:10;;;;;;;;;4.67;3.67;;;;;;;;5053540;28;45827;-78
2023/09/03 08:20:35;;;;;;;;;4.00;4.00;;;;;;;;5055717;28;47088;-79
2023/09/03 08:23:00;;;;;;;;;5.00;5.00;;;;;;;;5072930;28;45415;-79
2023/09/03 08:25:26;;;;;;;;;4.33;4.33;;;;;;;;5071644;28;45426;-78
2023/09/03 08:27:52;;;;;;;;;3.67;3.67;;;;;;;;5074051;28;45828;-81
2023/09/03 08:30:18;;;;;;;;;3.25;3.00;;;;;;;;5074241;28;45556;-80
2023/09/03 08:32:43;;;;;;;;;4.33;4.00;;;;;;;;5052652;28;48527;-78
2023/09/03 08:35:08;;;;;;;;;4.25;4.25;;;;;;;;5074044;28;46380;-80
2023/09/03 08:37:33;;;;;;;;;3.50;3.50;;;;;;;;5055377;28;45582;-80
2023/09/03 08:39:59;;;;;;;;;3.00;3.00;;;;;;;;5071139;28;45367;-81
2023/09/03 08:42:25;;;;;;;;;3.50;3.50;;;;;;;;5072630;28;45985;-79
2023/09/03 08:44:52;;;;;;;;;4.50;3.50;;;;;;;;5073581;28;45874;-80
2023/09/03 08:47:18;;;;;;;;;4.75;4.75;;;;;;;;5071427;28;45833;-80
2023/09/03 08:49:44;;;;;;;;;5.00;3.50;;;;;;;;5073558;28;45408;-80
2023/09/03 08:52:10;;;;;;;;;2.50;2.50;;;;;;;;5072100;28;46174;-81
2023/09/03 08:54:35;;;;;;;;;4.75;4.75;;;;;;;;5053086;28;46190;-82
2023/09/03 08:57:01;;;;;;;;;4.50;4.50;;;;;;;;5054872;28;45351;-79
2023/09/03 08:59:26;;;;;;;;;4.75;4.75;;;;;;;;5073573;28;45533;-78
2023/09/03 09:01:53;;;;;;;;;5.75;5.75;;;;;;;;5056647;28;46999;-78
2023/09/03 09:04:18;;;;;;;;;4.00;4.00;;;;;;;;5081518;28;45426;-78
2023/09/03 09:06:45;;;;;;;;;3.50;3.50;;;;;;;;5081566;28;45394;-78
2023/09/03 09:09:11;;;;;;;;;4.00;4.00;;;;;;;;5081365;28;45369;-79
2023/09/03 09:11:41;;;;;;;;;5.00;4.00;;;;;;;;5081415;28;46219;-79
2023/09/03 09:14:22;;;;;;;;;4.00;4.00;;;;;;;;5081398;28;45481;-77
2023/09/03 09:16:47;;;;;;;;;5.50;5.50;;;;;;;;5081540;28;45299;-79
2023/09/03 09:19:15;;;;;;;;;5.00;5.00;;;;;;;;5074972;28;45368;-79
2023/09/03 09:21:40;;;;;;;;;3.50;3.50;;;;;;;;5069189;28;45360;-78
2023/09/03 09:24:06;;;;;;;;;6.00;6.00;;;;;;;;5051380;28;45327;-77
2023/09/03 09:26:32;;;;;;;;;3.00;3.00;;;;;;;;5070891;28;45312;-78
2023/09/03 09:28:58;;;;;;;;;4.75;4.00;;;;;;;;5071627;27;45293;-78
2023/09/03 09:31:30;;;;;;;;;3.25;3.00;;;;;;;;5071209;28;45339;-78
2023/09/03 09:33:55;;;;;;;;;6.00;6.00;;;;;;;;5068002;28;45499;-80
2023/09/03 09:36:20;;;;;;;;;6.75;6.75;;;;;;;;5067963;28;45407;-80
2023/09/03 09:38:45;;;;;;;;;4.75;4.75;;;;;;;;5068934;28;45532;-77
2023/09/03 09:41:21;;;;;;;;;4.00;4.00;;;;;;;;5068896;28;45386;-79
2023/09/03 09:43:46;;;;;;;;;5.50;5.00;;;;;;;;5051446;28;46013;-79
2023/09/03 09:46:24;;;;;;;;;5.00;5.00;;;;;;;;5052400;28;45296;-78
2023/09/03 09:48:56;;;;;;;;;5.00;5.00;;;;;;;;5070306;28;45398;-79
2023/09/03 09:51:21;;;;;;;;;4.50;4.50;;;;;;;;5067741;28;46475;-80
2023/09/03 09:53:54;;;;;;;;;4.50;4.50;;;;;;;;5050849;28;45986;-80
2023/09/03 09:56:19;;;;;;;;;4.75;4.75;;;;;;;;5073184;28;45347;-78
2023/09/03 09:58:45;;;;;;;;;5.00;5.00;;;;;;;;5080592;28;45432;-82
2023/09/03 10:01:10;;;;;;;;;3.00;3.00;;;;;;;;5079567;28;45226;-80
2023/09/03 10:03:42;;;;;;;;;4.00;4.00;;;;;;;;5044822;28;45270;-80
2023/09/03 10:06:07;;;;;;;;;5.25;5.25;;;;;;;;5065914;28;45293;-79
2023/09/03 10:08:34;;;;;;;;;5.25;5.25;;;;;;;;5071693;28;45259;-79
2023/09/03 10:10:59;;;;;;;;;7.25;7.25;;;;;;;;5080170;28;46034;-80
2023/09/03 10:13:25;;;;;;;;;5.75;5.75;;;;;;;;5062140;28;45286;-81
2023/09/03 10:15:51;;;;;;;;;5.50;5.50;;;;;;;;5062386;28;45490;-81
2023/09/03 10:18:17;;;;;;;;;11.25;11.25;;;;;;;;5080388;28;45413;-79
2023/09/03 10:20:43;;;;;;;;;7.75;7.75;;;;;;;;5080240;28;45358;-79
2023/09/03 10:23:08;;;;;;;;;7.50;7.50;;;;;;;;5080136;28;45355;-77
2023/09/03 10:25:35;;;;;;;;;29.67;27.67;;;;;;;;5080486;28;45374;-79
2023/09/03 10:28:03;;;;;;;;;12.50;12.50;;;;;;;;5080267;28;45329;-79
2023/09/03 10:30:40;;;;;;;;;5.25;5.25;;;;;;;;5098233;27;46577;-79
2023/09/03 10:33:07;;;;;;;;;18.67;18.67;;;;;;;;5082200;27;45382;-79
2023/09/03 10:35:32;;;;;;;;;16.67;16.67;;;;;;;;5100649;27;45435;-79
2023/09/03 10:37:58;;;;;;;;;6.00;6.00;;;;;;;;5089066;27;45358;-80
2023/09/03 10:40:24;;;;;;;;;3.75;3.75;;;;;;;;5079171;28;45481;-79
2023/09/03 10:42:50;;;;;;;;;9.50;9.50;;;;;;;;5061765;28;45406;-79
2023/09/03 10:45:15;;;;;;;;;6.75;6.75;;;;;;;;5080284;28;45399;-79
2023/09/03 10:47:56;;;;;;;;;8.00;8.00;;;;;;;;5061745;28;45876;-79
2023/09/03 10:50:40;;;;;;;;;6.75;6.75;;;;;;;;5079648;28;45374;-79
2023/09/03 10:53:05;;;;;;;;;5.50;5.50;;;;;;;;5079771;28;45240;-77
2023/09/03 10:55:31;;;;;;;;;7.00;7.00;;;;;;;;5080065;28;45307;-80
2023/09/03 10:58:10;;;;;;;;;7.75;6.75;;;;;;;;5061569;28;46077;-79
2023/09/03 11:00:35;;;;;;;;;5.00;5.00;;;;;;;;5079770;28;46179;-79
2023/09/03 11:03:14;;;;;;;;;4.25;4.00;;;;;;;;5070676;28;45417;-80
2023/09/03 11:05:39;;;;;;;;;8.00;6.75;;;;;;;;5051543;28;45534;-77
2023/09/03 11:08:21;;;;;;;;;7.00;7.00;;;;;;;;5067601;28;45398;-81
2023/09/03 11:10:47;;;;;;;;;6.00;6.00;;;;;;;;5068441;28;45596;-79
2023/09/03 11:13:13;;;;;;;;;4.25;4.25;;;;;;;;5067888;28;45257;-78
2023/09/03 11:15:45;;;;;;;;;5.25;5.25;;;;;;;;5067801;28;45220;-78
2023/09/03 11:18:10;;;;;;;;;6.00;6.00;;;;;;;;5067300;28;45333;-80
2023/09/03 11:20:36;;;;;;;;;5.50;5.50;;;;;;;;5063242;28;45415;-79
2023/09/03 11:23:02;;;;;;;;;7.25;7.25;;;;;;;;5069104;28;45301;-79
2023/09/03 11:25:35;;;;;;;;;6.75;6.75;;;;;;;;5068272;28;45258;-76
2023/09/03 11:28:00;;;;;;;;;9.00;7.75;;;;;;;;5067518;28;45596;-77
2023/09/03 11:30:25;;;;;;;;;5.25;5.25;;;;;;;;5070744;27;45442;-76
2023/09/03 11:32:50;;;;;;;;;7.00;7.00;;;;;;;;5068808;28;45465;-76
2023/09/03 11:35:16;;;;;;;;;7.75;6.50;;;;;;;;5069542;28;45576;-78
2023/09/03 11:37:41;;;;;;;;;7.50;6.75;;;;;;;;5067347;28;45438;-78
2023/09/03 11:40:06;;;;;;;;;4.75;4.75;;;;;;;;5051036;28;47520;-77
2023/09/03 11:42:32;;;;;;;;;4.00;4.00;;;;;;;;5068590;28;45446;-78
2023/09/03 11:44:58;;;;;;;;;6.50;6.50;;;;;;;;5048842;28;46183;-78
2023/09/03 11:47:23;;;;;;;;;4.50;4.50;;;;;;;;5067397;28;45666;-80
2023/09/03 11:49:48;;;;;;;;;8.00;6.50;;;;;;;;5068755;28;45413;-80
2023/09/03 11:52:14;;;;;;;;;8.50;8.50;;;;;;;;5053664;28;45423;-78
2023/09/03 11:54:40;;;;;;;;;5.75;5.75;;;;;;;;5071115;28;45162;-79
2023/09/03 11:57:06;;;;;;;;;5.00;5.00;;;;;;;;5079479;28;45166;-76
2023/09/03 11:59:31;;;;;;;;;5.00;5.00;;;;;;;;5070263;28;45228;-78
2023/09/03 12:01:56;;;;;;;;;5.75;5.75;;;;;;;;5062359;28;45339;-80
2023/09/03 12:04:22;;;;;;;;;3.00;3.00;;;;;;;;5043979;28;45218;-77
2023/09/03 12:06:47;;;;;;;;;6.00;5.75;;;;;;;;5061999;28;45268;-76
2023/09/03 12:09:13;;;;;;;;;5.00;4.00;;;;;;;;5069919;28;45390;-77
2023/09/03 12:11:38;;;;;;;;;5.00;4.75;;;;;;;;5076630;28;45350;-78
2023/09/03 12:14:03;;;;;;;;;5.00;5.00;;;;;;;;5082454;28;45414;-78
2023/09/03 12:16:28;;;;;;;;;4.75;4.75;;;;;;;;5082362;28;45423;-79
2023/09/03 12:18:58;;;;;;;;;4.50;4.50;;;;;;;;5082373;28;45645;-76
2023/09/03 12:21:33;;;;;;;;;3.75;3.75;;;;;;;;5082152;28;45255;-76
2023/09/03 12:24:00;;;;;;;;;4.00;4.00;;;;;;;;5082457;28;45209;-77
2023/09/03 12:26:25;;;;;;;;;6.00;5.00;;;;;;;;5063765;28;46084;-77
2023/09/03 12:28:51;;;;;;;;;5.00;5.00;;;;;;;;5054801;27;47452;-77
2023/09/03 12:31:17;;;;;;;;;3.50;3.50;;;;;;;;5102673;27;45271;-78
2023/09/03 12:33:47;;;;;;;;;4.00;4.00;;;;;;;;5102731;27;45213;-76
2023/09/03 12:36:13;;;;;;;;;4.00;4.00;;;;;;;;5101960;27;45512;-78
2023/09/03 12:38:52;;;;;;;;;5.00;5.00;;;;;;;;5083848;27;47272;-77
2023/09/03 12:41:17;;;;;;;;;5.00;5.00;;;;;;;;5102436;27;45310;-76
2023/09/03 12:43:42;;;;;;;;;4.50;4.50;;;;;;;;5102268;27;45205;-75
2023/09/03 12:46:09;;;;;;;;;4.75;4.75;;;;;;;;5069492;28;46337;-77
2023/09/03 12:48:34;;;;;;;;;7.25;5.50;;;;;;;;5081826;28;46226;-77
2023/09/03 12:51:00;;;;;;;;;3.75;3.75;;;;;;;;5081565;28;45393;-76
2023/09/03 12:53:25;;;;;;;;;5.25;5.00;;;;;;;;5082195;28;45328;-76
2023/09/03 12:55:50;;;;;;;;;8.00;6.50;;;;;;;;5081450;28;45567;-75
2023/09/03 12:58:15;;;;;;;;;5.25;5.25;;;;;;;;5063483;28;46169;-76
2023/09/03 13:00:40;;;;;;;;;4.00;4.00;;;;;;;;5081812;28;45453;-76
2023/09/03 13:03:05;;;;;;;;;2.50;2.50;;;;;;;;5069442;28;45379;-76
2023/09/03 13:05:31;;;;;;;;;4.00;4.00;;;;;;;;5079023;28;45302;-76
2023/09/03 13:07:56;;;;;;;;;4.25;3.75;;;;;;;;5081351;28;46606;-78
2023/09/03 13:10:21;;;;;;;;;4.75;4.75;;;;;;;;5081605;28;45217;-75
2023/09/03 13:12:46;;;;;;;;;3.50;3.00;;;;;;;;5081686;28;45303;-76
2023/09/03 13:15:12;;;;;;;;;3.00;3.00;;;;;;;;5081502;28;45340;-77
2023/09/03 13:17:37;;;;;;;;;4.00;4.00;;;;;;;;5063575;28;45410;-76
2023/09/03 13:20:02;;;;;;;;;4.75;4.75;;;;;;;;5064883;28;45561;-79
2023/09/03 13:22:27;;;;;;;;;4.00;4.00;;;;;;;;5070716;28;45339;-79
2023/09/03 13:24:53;;;;;;;;;4.00;4.00;;;;;;;;5069960;27;45277;-78
2023/09/03 13:27:18;;;;;;;;;4.00;4.00;;;;;;;;5051933;28;48166;-79
2023/09/03 13:29:43;;;;;;;;;3.25;3.00;;;;;;;;5085222;27;45394;-79
2023/09/03 13:32:08;;;;;;;;;4.00;4.00;;;;;;;;5069881;28;45571;-79
2023/09/03 13:34:33;;;;;;;;;2.00;2.00;;;;;;;;5049283;28;47326;-78
2023/09/03 13:36:59;;;;;;;;;4.00;4.00;;;;;;;;5068704;28;45512;-79
2023/09/03 13:39:24;;;;;;;;;3.50;3.50;;;;;;;;5062071;28;45290;-79
2023/09/03 13:41:49;;;;;;;;;3.25;3.25;;;;;;;;5042348;28;45454;-81
2023/09/03 13:44:14;;;;;;;;;4.50;4.50;;;;;;;;5075131;28;45305;-79
2023/09/03 13:46:40;;;;;;;;;3.50;3.50;;;;;;;;5080128;28;46156;-80
2023/09/03 13:49:05;;;;;;;;;5.00;5.00;;;;;;;;5080721;28;45287;-80
2023/09/03 13:51:30;;;;;;;;;4.50;4.50;;;;;;;;5066806;28;45378;-82
2023/09/03 13:53:56;;;;;;;;;5.00;5.00;;;;;;;;5060233;28;45327;-79
2023/09/03 13:56:21;;;;;;;;;3.50;3.50;;;;;;;;5059514;28;45310;-81
2023/09/03 13:58:47;;;;;;;;;4.75;4.00;;;;;;;;5060126;28;45204;-79
2023/09/03 14:01:12;;;;;;;;;4.00;4.00;;;;;;;;5060924;28;45343;-81
2023/09/03 14:03:37;;;;;;;;;5.50;5.50;;;;;;;;5061771;28;45600;-79
2023/09/03 14:06:03;;;;;;;;;3.75;3.75;;;;;;;;5079150;28;45899;-82
2023/09/03 14:08:28;;;;;;;;;4.00;4.00;;;;;;;;5062126;28;45387;-79
2023/09/03 14:10:57;;;;;;;;;4.00;4.00;;;;;;;;5080034;28;45383;-80
2023/09/03 14:13:22;;;;;;;;;3.75;3.75;;;;;;;;5042339;28;46001;-81
2023/09/03 14:15:48;;;;;;;;;4.00;4.00;;;;;;;;5053077;28;47133;-78
2023/09/03 14:18:13;;;;;;;;;5.50;5.50;;;;;;;;5059880;27;45497;-78
2023/09/03 14:20:38;;;;;;;;;4.00;4.00;;;;;;;;5074716;27;45297;-81
2023/09/03 14:23:03;;;;;;;;;5.50;4.75;;;;;;;;5059424;27;45391;-79
2023/09/03 14:25:29;;;;;;;;;4.50;4.00;;;;;;;;5048560;28;48822;-79
2023/09/03 14:27:55;;;;;;;;;4.00;4.00;;;;;;;;5059525;27;45290;-79
2023/09/03 14:30:20;;;;;;;;;3.00;3.00;;;;;;;;5078845;27;46194;-78
2023/09/03 14:32:45;;;;;;;;;3.75;3.75;;;;;;;;5044244;27;46298;-82
2023/09/03 14:35:10;;;;;;;;;4.00;4.00;;;;;;;;5068520;27;45324;-79
2023/09/03 14:37:35;;;;;;;;;3.00;3.00;;;;;;;;5077833;28;45310;-79